KYNG/YNG METAR and TAF weather

Enter ICAO airport designator
Station Type Date Time Source
KYNG METAR 2021/06/24 04:51 UTC NOAA

KYNG 240451Z 15006KT 10SM FEW100 SCT250 16/09 A3024 RMK AO2 SLP236 T01610094 402390083


Station Type Date Time Source
KYNG Decoded METAR 2021/06/24 04:51 UTC NOAA

YOUNGSTOWN-WARREN REG AIRPRT, OH, United States (KYNG) 41-15N 080-40W 360M
Jun 24, 2021 - 12:51 AM EDT / 2021.06.24 0451 UTC
Wind: from the SSE (150 degrees) at 7 MPH (6 KT):0
Visibility: 10 mile(s):0
Sky conditions: partly cloudy
Temperature: 61.0 F (16.1 C)
Dew Point: 48.9 F (9.4 C)
Relative Humidity: 64%
Pressure (altimeter): 30.24 in. Hg (1024 hPa)
ob: KYNG 240451Z 15006KT 10SM FEW100 SCT250 16/09 A3024 RMK AO2 SLP236 T01610094 402390083
cycle: 5

Station Type Date Time Source
KYNG TAF 2021/06/24 06:42 UTC NOAA

TAF KYNG 240539Z 2406/2506 15008KT P6SM SCT100
FM241500 18011G17KT P6SM FEW250
FM250000 17008KT P6SM BKN250

Example: see airport list